Archival Weather

John F Kennedy Intl

New York, New York (KJFK)

Report from: Thursday, September 21, 2023 6:51 AM EDT
Current time: Sunday, February 25, 2024 5:53 PM EST

Current weather – Weather history – Daily summaries
Weather forecast

Temperature14.4°C (57.9°F)
Dew point8.9°C (48.0°F)
Winds 8 kts (4.1 m/s, 9.2 mph) North (350°)
Visibility10 mi. (16.1 km)
Clouds Few clouds 25,000 ft. (7,620 m)
Altimeter30.26 in.Hg (1025 mB)
Relative humidity70 %
Density altitude-294 ft. (-90 m)
Sea-level pressure102.5 kPa (1025 mB, 30.26 in.Hg)
Remarks System requires maintenance
Automated weather observing station with precipitation discriminator
Flight conditions Visual Meteorological Conditions
Raw dataKJFK 211051Z 35008KT 10SM FEW250 14/09 A3026 RMK AO2 SLP247 T01440089 $
An error has occurred. This application may no longer respond until reloaded. Reload 🗙